Time,TemperatureF,DewpointF,PressureIn,WindDirection,WindDirectionDegrees,WindSpeedMPH,WindSpeedGustMPH,Humidity,HourlyPrecipIn,Conditions,Clouds,dailyrainin,SolarRadiationWatts/m^2,SoftwareType,DateUTC
2013-04-22 00:01:00,74.0,35.0,-100.00,NNW,342,0.0,7.0,24,-99.99,,,0.00,0.000000,,2013-04-22 07:01:00,
2013-04-22 00:11:00,74.0,35.0,-100.00,NNW,342,0.0,7.0,24,-99.99,,,0.00,0.000000,,2013-04-22 07:11:00,
2013-04-22 00:21:00,74.0,35.0,-100.00,NNW,342,0.0,7.0,24,-99.99,,,0.00,0.000000,,2013-04-22 07:21:00,
2013-04-22 00:31:00,74.0,35.0,-100.00,NNW,342,0.0,7.0,24,-99.99,,,0.00,0.000000,,2013-04-22 07:31:00,
2013-04-22 00:52:00,73.0,34.0,-100.00,NW,320,0.0,3.0,24,0.00,,,0.00,1.000000,,2013-04-22 07:52:00,
2013-04-22 01:01:00,73.0,34.0,-100.00,NW,320,0.0,3.0,24,0.00,,,0.00,1.000000,,2013-04-22 08:01:00,
2013-04-22 01:11:00,73.0,34.0,-100.00,NW,320,0.0,3.0,24,0.00,,,0.00,1.000000,,2013-04-22 08:11:00,
2013-04-22 01:22:00,73.0,34.0,-100.00,NW,320,0.0,3.0,24,0.00,,,0.00,1.000000,,2013-04-22 08:22:00,
2013-04-22 01:32:00,73.0,34.0,-100.00,NW,320,0.0,3.0,24,0.00,,,0.00,1.000000,,2013-04-22 08:32:00,
2013-04-22 01:52:00,70.0,34.0,-100.00,North,353,0.0,0.0,26,0.00,,,0.00,1.000000,,2013-04-22 08:52:00,
2013-04-22 02:01:00,70.0,34.0,-100.00,North,353,0.0,0.0,26,0.00,,,0.00,1.000000,,2013-04-22 09:01:00,
2013-04-22 02:11:00,70.0,34.0,-100.00,North,353,0.0,0.0,26,0.00,,,0.00,1.000000,,2013-04-22 09:11:00,
2013-04-22 02:21:00,70.0,34.0,-100.00,North,353,0.0,0.0,26,0.00,,,0.00,1.000000,,2013-04-22 09:21:00,
2013-04-22 02:32:00,70.0,34.0,-100.00,North,353,0.0,0.0,26,0.00,,,0.00,1.000000,,2013-04-22 09:32:00,
2013-04-22 02:52:00,70.0,33.0,-100.00,NW,315,0.0,0.0,25,0.00,,,0.00,1.000000,,2013-04-22 09:52:00,
2013-04-22 03:03:00,70.0,33.0,-100.00,NW,315,0.0,0.0,25,0.00,,,0.00,1.000000,,2013-04-22 10:03:00,
2013-04-22 03:12:00,70.0,33.0,-100.00,NW,315,0.0,0.0,25,0.00,,,0.00,1.000000,,2013-04-22 10:12:00,
2013-04-22 03:22:00,70.0,33.0,-100.00,NW,315,0.0,0.0,25,0.00,,,0.00,1.000000,,2013-04-22 10:22:00,
2013-04-22 03:32:00,70.0,33.0,-100.00,NW,315,0.0,0.0,25,0.00,,,0.00,1.000000,,2013-04-22 10:32:00,
2013-04-22 03:52:00,72.0,36.0,-100.00,ESE,121,2.0,11.0,27,0.00,,,0.00,0.000000,,2013-04-22 10:52:00,
2013-04-22 04:02:00,72.0,36.0,-100.00,ESE,121,2.0,11.0,27,0.00,,,0.00,0.000000,,2013-04-22 11:02:00,
2013-04-22 04:12:00,72.0,36.0,-100.00,ESE,121,2.0,11.0,27,0.00,,,0.00,0.000000,,2013-04-22 11:12:00,
2013-04-22 04:52:00,70.0,34.0,-100.00,SE,125,2.0,9.0,27,-99.99,,,0.00,1.000000,,2013-04-22 11:52:00,
2013-04-22 05:01:00,70.0,34.0,-100.00,SE,125,2.0,9.0,27,-99.99,,,0.00,1.000000,,2013-04-22 12:01:00,
2013-04-22 05:12:00,70.0,34.0,-100.00,SE,125,2.0,9.0,27,-99.99,,,0.00,1.000000,,2013-04-22 12:12:00,
2013-04-22 05:21:00,70.0,34.0,-100.00,SE,125,2.0,9.0,27,-99.99,,,0.00,1.000000,,2013-04-22 12:21:00,
2013-04-22 05:31:00,70.0,34.0,-100.00,SE,125,2.0,9.0,27,-99.99,,,0.00,1.000000,,2013-04-22 12:31:00,
2013-04-22 05:52:00,68.0,35.0,-100.00,SSE,160,0.0,7.0,30,0.00,,,0.00,0.000000,,2013-04-22 12:52:00,
2013-04-22 06:01:00,68.0,35.0,-100.00,SSE,160,0.0,7.0,30,0.00,,,0.00,0.000000,,2013-04-22 13:01:00,
2013-04-22 06:11:00,68.0,35.0,-100.00,SSE,160,0.0,7.0,30,0.00,,,0.00,0.000000,,2013-04-22 13:11:00,
2013-04-22 06:22:00,68.0,35.0,-100.00,SSE,160,0.0,7.0,30,0.00,,,0.00,0.000000,,2013-04-22 13:22:00,
2013-04-22 06:31:00,68.0,35.0,-100.00,SSE,160,0.0,7.0,30,0.00,,,0.00,0.000000,,2013-04-22 13:31:00,
2013-04-22 06:33:00,66.0,37.0,-100.00,ESE,103,0.0,0.0,34,0.00,,,0.00,2.000000,,2013-04-22 13:33:00,
2013-04-22 06:53:00,66.0,37.0,-100.00,ESE,103,0.0,0.0,34,0.00,,,0.00,2.000000,,2013-04-22 13:53:00,
2013-04-22 07:02:00,66.0,37.0,-100.00,ESE,103,0.0,0.0,34,0.00,,,0.00,2.000000,,2013-04-22 14:02:00,
2013-04-22 07:11:00,66.0,37.0,-100.00,ESE,103,0.0,0.0,34,0.00,,,0.00,2.000000,,2013-04-22 14:11:00,
2013-04-22 07:21:00,66.0,37.0,-100.00,ESE,103,0.0,0.0,34,0.00,,,0.00,2.000000,,2013-04-22 14:21:00,
2013-04-22 07:33:00,68.0,39.0,-100.00,SE,145,0.0,5.0,35,0.00,,,-99.99,59.000000,,2013-04-22 14:33:00,
2013-04-22 07:52:00,68.0,39.0,-100.00,SE,145,0.0,5.0,35,0.00,,,-99.99,59.000000,,2013-04-22 14:52:00,
2013-04-22 08:01:00,68.0,39.0,-100.00,SE,145,0.0,5.0,35,0.00,,,-99.99,59.000000,,2013-04-22 15:01:00,
2013-04-22 08:11:00,68.0,39.0,-100.00,SE,145,0.0,5.0,35,0.00,,,-99.99,59.000000,,2013-04-22 15:11:00,
2013-04-22 08:22:00,68.0,39.0,-100.00,SE,145,0.0,5.0,35,0.00,,,-99.99,59.000000,,2013-04-22 15:22:00,
2013-04-22 08:53:00,68.0,41.0,-100.00,SE,135,0.0,8.0,37,0.00,,,0.00,234.000000,,2013-04-22 15:53:00,
2013-04-22 09:02:00,68.0,41.0,-100.00,SE,135,0.0,8.0,37,0.00,,,0.00,234.000000,,2013-04-22 16:02:00,
2013-04-22 09:12:00,68.0,41.0,-100.00,SE,135,0.0,8.0,37,0.00,,,0.00,234.000000,,2013-04-22 16:12:00,
2013-04-22 09:23:00,68.0,41.0,-100.00,SE,135,0.0,8.0,37,0.00,,,0.00,234.000000,,2013-04-22 16:23:00,
2013-04-22 09:32:00,68.0,41.0,-100.00,SE,135,0.0,8.0,37,0.00,,,0.00,234.000000,,2013-04-22 16:32:00,
2013-04-22 09:52:00,73.0,44.0,-100.00,South,170,0.0,0.0,36,0.00,,,0.00,432.000000,,2013-04-22 16:52:00,
2013-04-22 10:02:00,73.0,44.0,-100.00,South,170,0.0,0.0,36,0.00,,,0.00,432.000000,,2013-04-22 17:02:00,
2013-04-22 10:12:00,73.0,44.0,-100.00,South,170,0.0,0.0,36,0.00,,,0.00,432.000000,,2013-04-22 17:12:00,
2013-04-22 10:22:00,73.0,44.0,-100.00,South,170,0.0,0.0,36,0.00,,,0.00,432.000000,,2013-04-22 17:22:00,
2013-04-22 10:31:00,73.0,44.0,-100.00,South,170,0.0,0.0,36,0.00,,,0.00,432.000000,,2013-04-22 17:31:00,
2013-04-22 10:52:00,77.0,45.0,-100.00,South,189,0.0,1.0,32,0.00,,,0.00,620.000000,,2013-04-22 17:52:00,
2013-04-22 11:01:00,77.0,45.0,-100.00,South,189,0.0,1.0,32,0.00,,,0.00,620.000000,,2013-04-22 18:01:00,
2013-04-22 11:12:00,77.0,45.0,-100.00,South,189,0.0,1.0,32,0.00,,,0.00,620.000000,,2013-04-22 18:12:00,
2013-04-22 11:21:00,77.0,45.0,-100.00,South,189,0.0,1.0,32,0.00,,,0.00,620.000000,,2013-04-22 18:21:00,
2013-04-22 11:31:00,77.0,45.0,-100.00,South,189,0.0,1.0,32,0.00,,,0.00,620.000000,,2013-04-22 18:31:00,
2013-04-22 11:52:00,78.0,39.0,-100.00,SSE,149,0.0,7.0,25,0.00,,,0.00,778.000000,,2013-04-22 18:52:00,
2013-04-22 12:01:00,78.0,39.0,-100.00,SSE,149,0.0,7.0,25,0.00,,,0.00,778.000000,,2013-04-22 19:01:00,
2013-04-22 12:11:00,78.0,39.0,-100.00,SSE,149,0.0,7.0,25,0.00,,,0.00,778.000000,,2013-04-22 19:11:00,
2013-04-22 12:21:00,78.0,39.0,-100.00,SSE,149,0.0,7.0,25,0.00,,,0.00,778.000000,,2013-04-22 19:21:00,
2013-04-22 12:32:00,78.0,39.0,-100.00,SSE,149,0.0,7.0,25,0.00,,,0.00,778.000000,,2013-04-22 19:32:00,
2013-04-22 12:52:00,80.0,34.0,-100.00,WNW,291,0.0,3.0,19,0.00,,,0.00,886.000000,,2013-04-22 19:52:00,
2013-04-22 13:02:00,80.0,34.0,-100.00,WNW,291,0.0,3.0,19,0.00,,,0.00,886.000000,,2013-04-22 20:02:00,
2013-04-22 13:11:00,80.0,34.0,-100.00,WNW,291,0.0,3.0,19,0.00,,,0.00,886.000000,,2013-04-22 20:11:00,
2013-04-22 13:22:00,80.0,34.0,-100.00,WNW,291,0.0,3.0,19,0.00,,,0.00,886.000000,,2013-04-22 20:22:00,
2013-04-22 13:31:00,80.0,34.0,-100.00,WNW,291,0.0,3.0,19,0.00,,,0.00,886.000000,,2013-04-22 20:31:00,
2013-04-22 13:52:00,82.0,31.0,-100.00,NNE,29,0.0,4.0,16,0.00,,,0.00,935.000000,,2013-04-22 20:52:00,
2013-04-22 14:02:00,82.0,31.0,-100.00,NNE,29,0.0,4.0,16,0.00,,,0.00,935.000000,,2013-04-22 21:02:00,
2013-04-22 14:11:00,82.0,31.0,-100.00,NNE,29,0.0,4.0,16,0.00,,,0.00,935.000000,,2013-04-22 21:11:00,
2013-04-22 14:21:00,82.0,31.0,-100.00,NNE,29,0.0,4.0,16,0.00,,,0.00,935.000000,,2013-04-22 21:21:00,
2013-04-22 14:32:00,82.0,31.0,-100.00,NNE,29,0.0,4.0,16,0.00,,,0.00,935.000000,,2013-04-22 21:32:00,
2013-04-22 14:53:00,84.0,31.0,-100.00,SE,135,0.0,10.0,15,0.00,,,0.00,919.000000,,2013-04-22 21:53:00,
2013-04-22 15:02:00,84.0,31.0,-100.00,SE,135,0.0,10.0,15,0.00,,,0.00,919.000000,,2013-04-22 22:02:00,
2013-04-22 15:12:00,84.0,31.0,-100.00,SE,135,0.0,10.0,15,0.00,,,0.00,919.000000,,2013-04-22 22:12:00,
2013-04-22 15:22:00,84.0,31.0,-100.00,SE,135,0.0,10.0,15,0.00,,,0.00,919.000000,,2013-04-22 22:22:00,
2013-04-22 15:32:00,84.0,31.0,-100.00,SE,135,0.0,10.0,15,0.00,,,0.00,919.000000,,2013-04-22 22:32:00,
2013-04-22 15:52:00,86.0,38.0,-100.00,WSW,258,0.0,11.0,18,0.00,,,0.00,846.000000,,2013-04-22 22:52:00,
2013-04-22 16:02:00,86.0,38.0,-100.00,WSW,258,0.0,11.0,18,0.00,,,0.00,846.000000,,2013-04-22 23:02:00,
2013-04-22 16:11:00,86.0,38.0,-100.00,WSW,258,0.0,11.0,18,0.00,,,0.00,846.000000,,2013-04-22 23:11:00,
2013-04-22 16:21:00,86.0,38.0,-100.00,WSW,258,0.0,11.0,18,0.00,,,0.00,846.000000,,2013-04-22 23:21:00,
2013-04-22 16:32:00,86.0,38.0,-100.00,WSW,258,0.0,11.0,18,0.00,,,0.00,846.000000,,2013-04-22 23:32:00,
2013-04-22 16:52:00,80.0,40.0,-100.00,West,272,5.0,18.0,24,0.00,,,0.00,720.000000,,2013-04-22 23:52:00,
2013-04-22 17:01:00,80.0,40.0,-100.00,West,272,5.0,18.0,24,0.00,,,0.00,720.000000,,2013-04-23 00:01:00,
2013-04-22 17:12:00,80.0,40.0,-100.00,West,272,5.0,18.0,24,0.00,,,0.00,720.000000,,2013-04-23 00:12:00,
2013-04-22 17:21:00,80.0,40.0,-100.00,West,272,5.0,18.0,24,0.00,,,0.00,720.000000,,2013-04-23 00:21:00,
2013-04-22 17:31:00,80.0,40.0,-100.00,West,272,5.0,18.0,24,0.00,,,0.00,720.000000,,2013-04-23 00:31:00,
2013-04-22 17:52:00,76.0,43.0,-100.00,West,272,13.0,19.0,31,0.00,,,0.00,550.000000,,2013-04-23 00:52:00,
2013-04-22 18:01:00,76.0,43.0,-100.00,West,272,13.0,19.0,31,0.00,,,0.00,550.000000,,2013-04-23 01:01:00,
2013-04-22 18:11:00,76.0,43.0,-100.00,West,272,13.0,19.0,31,0.00,,,0.00,550.000000,,2013-04-23 01:11:00,
2013-04-22 18:21:00,76.0,43.0,-100.00,West,272,13.0,19.0,31,0.00,,,0.00,550.000000,,2013-04-23 01:21:00,
2013-04-22 18:31:00,76.0,43.0,-100.00,West,272,13.0,19.0,31,0.00,,,0.00,550.000000,,2013-04-23 01:31:00,
2013-04-22 18:52:00,75.0,40.0,-100.00,East,89,0.0,21.0,28,0.00,,,0.00,350.000000,,2013-04-23 01:52:00,
2013-04-22 19:01:00,75.0,40.0,-100.00,East,89,0.0,21.0,28,0.00,,,0.00,350.000000,,2013-04-23 02:01:00,
2013-04-22 19:12:00,75.0,40.0,-100.00,East,89,0.0,21.0,28,0.00,,,0.00,350.000000,,2013-04-23 02:12:00,
2013-04-22 19:21:00,75.0,40.0,-100.00,East,89,0.0,21.0,28,0.00,,,0.00,350.000000,,2013-04-23 02:21:00,
2013-04-22 19:32:00,75.0,40.0,-100.00,East,89,0.0,21.0,28,0.00,,,0.00,350.000000,,2013-04-23 02:32:00,
2013-04-22 19:52:00,71.0,36.0,-100.00,NW,308,5.0,16.0,28,0.00,,,0.00,147.000000,,2013-04-23 02:52:00,
2013-04-22 20:01:00,71.0,36.0,-100.00,NW,308,5.0,16.0,28,0.00,,,0.00,147.000000,,2013-04-23 03:01:00,
2013-04-22 20:11:00,71.0,36.0,-100.00,NW,308,5.0,16.0,28,0.00,,,0.00,147.000000,,2013-04-23 03:11:00,
2013-04-22 20:21:00,71.0,36.0,-100.00,NW,308,5.0,16.0,28,0.00,,,0.00,147.000000,,2013-04-23 03:21:00,
2013-04-22 20:32:00,71.0,36.0,-100.00,NW,308,5.0,16.0,28,0.00,,,0.00,147.000000,,2013-04-23 03:32:00,
2013-04-22 20:53:00,70.0,33.0,-100.00,NNW,339,5.0,11.0,25,0.00,,,0.00,9.000000,,2013-04-23 03:53:00,
2013-04-22 21:03:00,70.0,33.0,-100.00,NNW,339,5.0,11.0,25,0.00,,,0.00,9.000000,,2013-04-23 04:03:00,
2013-04-22 21:12:00,70.0,33.0,-100.00,NNW,339,5.0,11.0,25,0.00,,,0.00,9.000000,,2013-04-23 04:12:00,
2013-04-22 21:23:00,70.0,33.0,-100.00,NNW,339,5.0,11.0,25,0.00,,,0.00,9.000000,,2013-04-23 04:23:00,
2013-04-22 21:32:00,70.0,33.0,-100.00,NNW,339,5.0,11.0,25,0.00,,,0.00,9.000000,,2013-04-23 04:32:00,
2013-04-22 21:53:00,72.0,31.0,-100.00,NW,323,5.0,12.0,22,0.00,,,0.00,1.000000,,2013-04-23 04:53:00,
2013-04-22 22:02:00,72.0,31.0,-100.00,NW,323,5.0,12.0,22,0.00,,,0.00,1.000000,,2013-04-23 05:02:00,
2013-04-22 22:52:00,74.0,34.0,-100.00,NNW,332,10.0,13.0,23,-99.99,,,0.00,1.000000,,2013-04-23 05:52:00,
2013-04-22 23:01:00,74.0,34.0,-100.00,NNW,332,10.0,13.0,23,-99.99,,,0.00,1.000000,,2013-04-23 06:01:00,
2013-04-22 23:52:00,72.0,30.0,-100.00,SSW,211,3.0,13.0,21,-99.99,,,0.00,1.000000,,2013-04-23 06:52:00,